createdAt,value
2018-10-07T00:00:54.125Z,22.27
2018-10-07T00:02:58.960Z,23.97
2018-10-07T00:05:03.753Z,22.17
2018-10-07T00:07:08.878Z,21.10
2018-10-07T00:09:13.678Z,22.90
2018-10-07T00:11:18.619Z,21.13
2018-10-07T00:13:23.378Z,26.10
2018-10-07T00:17:34.383Z,22.50
2018-10-07T00:19:39.044Z,23.63
2018-10-07T00:21:43.818Z,22.43
2018-10-07T00:23:48.562Z,25.07
2018-10-07T00:25:53.273Z,22.90
2018-10-07T00:27:58.070Z,22.70
2018-10-07T00:30:02.845Z,24.87
2018-10-07T00:32:12.897Z,25.97
2018-10-07T00:34:17.656Z,24.30
2018-10-07T00:36:22.437Z,25.07
2018-10-07T00:38:27.174Z,24.57
2018-10-07T00:40:31.833Z,26.20
2018-10-07T00:42:36.668Z,23.00
2018-10-07T00:44:41.425Z,23.00
2018-10-07T00:46:46.139Z,25.37
2018-10-07T00:48:50.964Z,25.30
2018-10-07T00:50:55.711Z,25.60
2018-10-07T00:53:00.448Z,26.80
2018-10-07T00:55:05.634Z,24.47
2018-10-07T00:57:10.652Z,23.53
2018-10-07T00:59:15.464Z,24.63
2018-10-07T01:01:20.306Z,24.60
2018-10-07T01:03:25.035Z,25.90
2018-10-07T01:05:29.738Z,23.87
2018-10-07T01:07:34.458Z,24.80
2018-10-07T01:09:39.113Z,24.67
2018-10-07T01:11:43.802Z,26.97
2018-10-07T01:13:48.522Z,25.17
2018-10-07T01:15:53.240Z,25.23
2018-10-07T01:17:58.012Z,24.13
2018-10-07T01:20:02.754Z,24.40
2018-10-07T01:22:07.471Z,23.43
2018-10-07T01:24:12.253Z,25.77
2018-10-07T01:26:17.073Z,27.40
2018-10-07T01:28:21.810Z,27.20
2018-10-07T01:30:26.550Z,25.63
2018-10-07T01:32:31.340Z,26.90
2018-10-07T01:34:35.994Z,26.30
2018-10-07T01:36:40.593Z,26.57
2018-10-07T01:38:45.278Z,28.40
2018-10-07T01:40:50.014Z,29.27
2018-10-07T01:42:54.724Z,30.30
2018-10-07T01:44:59.563Z,28.60
2018-10-07T01:47:04.358Z,28.80
2018-10-07T01:49:09.099Z,30.00
2018-10-07T01:51:13.889Z,30.47
2018-10-07T01:53:18.796Z,29.40
2018-10-07T01:55:23.505Z,34.20
2018-10-07T01:57:28.182Z,32.07
2018-10-07T01:59:33.118Z,34.90
2018-10-07T02:01:37.806Z,35.50
2018-10-07T02:03:42.585Z,35.63
2018-10-07T02:08:02.993Z,36.27
2018-10-07T02:10:07.822Z,33.37
2018-10-07T02:12:12.552Z,36.80
2018-10-07T02:14:17.394Z,38.57
2018-10-07T02:16:22.291Z,36.47
2018-10-07T02:18:27.127Z,35.47
2018-10-07T02:20:32.012Z,38.47
2018-10-07T02:22:36.835Z,38.00
2018-10-07T02:24:41.539Z,35.37
2018-10-07T02:26:46.545Z,37.33
2018-10-07T02:28:51.275Z,36.13
2018-10-07T02:30:56.058Z,35.17
2018-10-07T02:33:01.001Z,39.57
2018-10-07T02:35:05.757Z,35.93
2018-10-07T02:37:10.407Z,36.83
2018-10-07T02:39:15.126Z,35.40
2018-10-07T02:41:19.901Z,36.67
2018-10-07T02:43:24.631Z,37.07
2018-10-07T02:45:29.347Z,35.27
2018-10-07T02:47:34.129Z,33.40
2018-10-07T02:49:38.914Z,33.20
2018-10-07T02:51:43.943Z,34.70
2018-10-07T02:53:48.761Z,35.50
2018-10-07T02:55:53.574Z,35.70
2018-10-07T02:58:00.001Z,35.93
2018-10-07T03:00:04.885Z,37.47
2018-10-07T03:02:09.551Z,37.57
2018-10-07T03:04:14.404Z,35.90
2018-10-07T03:06:19.265Z,39.83
2018-10-07T03:08:24.049Z,35.90
2018-10-07T03:10:28.853Z,37.23
2018-10-07T03:12:33.791Z,33.20
2018-10-07T03:14:38.628Z,36.30
2018-10-07T03:16:43.333Z,39.10
2018-10-07T03:18:48.235Z,35.20
2018-10-07T03:20:53.097Z,34.77
2018-10-07T03:22:57.886Z,38.07
2018-10-07T03:25:02.677Z,37.50
2018-10-07T03:27:07.506Z,36.23
2018-10-07T03:29:12.299Z,38.10
2018-10-07T03:31:16.953Z,37.80
2018-10-07T03:33:21.683Z,35.30
2018-10-07T03:35:26.342Z,31.57
2018-10-07T03:37:31.067Z,34.13
2018-10-07T03:39:35.789Z,31.67
2018-10-07T03:41:40.782Z,30.70
2018-10-07T03:43:45.528Z,32.40
2018-10-07T03:45:50.367Z,25.50
2018-10-07T03:47:55.234Z,15.90
2018-10-07T03:50:00.167Z,20.60
2018-10-07T03:52:05.074Z,18.13
2018-10-07T03:54:09.842Z,16.43
2018-10-07T03:56:14.663Z,15.70
2018-10-07T03:58:19.484Z,17.50
2018-10-07T04:00:24.255Z,16.27
2018-10-07T04:02:29.052Z,13.53
2018-10-07T04:04:33.869Z,12.63
2018-10-07T04:06:38.719Z,9.30
2018-10-07T04:08:43.596Z,9.20
2018-10-07T04:10:48.370Z,8.33
2018-10-07T04:12:53.132Z,9.60
2018-10-07T04:14:57.935Z,9.70
2018-10-07T04:17:03.180Z,10.37
2018-10-07T04:19:08.886Z,9.40
2018-10-07T04:21:13.817Z,9.93
2018-10-07T04:23:18.709Z,10.53
2018-10-07T04:25:23.775Z,9.20
2018-10-07T04:27:28.769Z,9.63
2018-10-07T04:29:33.722Z,9.30
2018-10-07T04:31:38.451Z,8.70
2018-10-07T04:33:43.382Z,9.40
2018-10-07T04:35:48.124Z,10.60
2018-10-07T04:37:53.008Z,8.37
2018-10-07T04:39:57.764Z,11.10
2018-10-07T04:42:02.458Z,10.13
2018-10-07T04:44:07.339Z,7.40
2018-10-07T04:46:12.197Z,13.23
2018-10-07T04:48:16.885Z,12.47
2018-10-07T04:50:21.594Z,13.90
2018-10-07T04:52:26.326Z,12.67
2018-10-07T04:54:31.007Z,14.70
2018-10-07T04:56:36.143Z,16.13
2018-10-07T04:58:40.903Z,15.53
2018-10-07T05:00:45.644Z,13.20
2018-10-07T05:02:50.463Z,14.73
2018-10-07T05:04:55.249Z,16.67
2018-10-07T05:07:00.077Z,14.60
2018-10-07T05:09:10.161Z,15.00
2018-10-07T05:11:15.064Z,13.53
2018-10-07T05:13:22.430Z,14.67
2018-10-07T05:15:28.448Z,15.47
2018-10-07T05:17:33.610Z,12.37
2018-10-07T05:19:38.455Z,13.57
2018-10-07T05:21:43.355Z,13.23
2018-10-07T05:23:48.552Z,10.40
2018-10-07T05:25:53.413Z,9.40
2018-10-07T05:27:58.323Z,8.90
2018-10-07T05:30:03.197Z,8.50
2018-10-07T05:32:08.038Z,7.07
2018-10-07T05:34:12.886Z,6.43
2018-10-07T05:36:17.892Z,6.50
2018-10-07T05:38:22.646Z,7.90
2018-10-07T05:40:27.389Z,7.50
2018-10-07T05:42:32.256Z,7.00
2018-10-07T05:44:37.313Z,8.10
2018-10-07T05:46:42.143Z,6.70
2018-10-07T05:48:47.233Z,6.87
2018-10-07T05:50:52.387Z,5.70
2018-10-07T05:52:57.235Z,5.30
2018-10-07T05:55:02.217Z,4.87
2018-10-07T05:57:07.108Z,4.10
2018-10-07T05:59:12.115Z,5.07
2018-10-07T06:01:32.304Z,4.90
2018-10-07T06:04:59.471Z,4.70
2018-10-07T06:07:05.244Z,3.40
2018-10-07T06:09:14.474Z,3.13
2018-10-07T06:11:19.468Z,3.63
2018-10-07T06:13:25.760Z,3.27
2018-10-07T06:15:39.588Z,3.43
2018-10-07T06:17:44.506Z,3.50
2018-10-07T06:19:50.638Z,2.20
2018-10-07T06:21:56.124Z,2.60
2018-10-07T06:24:02.952Z,2.40
2018-10-07T06:26:07.913Z,1.47
2018-10-07T06:28:12.847Z,2.47
2018-10-07T06:30:17.587Z,1.37
2018-10-07T06:32:22.652Z,2.33
2018-10-07T06:34:27.529Z,1.40
2018-10-07T06:36:33.060Z,1.43
2018-10-07T06:38:38.121Z,1.60
2018-10-07T06:40:43.821Z,1.60
2018-10-07T06:42:59.365Z,1.43
2018-10-07T06:45:07.127Z,1.33
2018-10-07T06:47:15.233Z,1.00
2018-10-07T06:49:20.333Z,1.27
2018-10-07T06:51:26.054Z,1.40
2018-10-07T06:53:30.907Z,1.10
2018-10-07T06:55:35.820Z,0.93
2018-10-07T06:57:40.617Z,1.13
2018-10-07T06:59:45.847Z,0.90
2018-10-07T07:01:50.923Z,0.97
2018-10-07T07:03:57.077Z,1.10
2018-10-07T07:06:01.897Z,0.90
2018-10-07T07:08:06.950Z,1.00
2018-10-07T07:10:12.212Z,0.90
2018-10-07T07:12:17.472Z,0.93
2018-10-07T07:14:22.418Z,0.73
2018-10-07T07:16:27.652Z,1.00
2018-10-07T07:18:32.481Z,1.37
2018-10-07T07:20:37.333Z,1.10
2018-10-07T07:22:42.420Z,1.20
2018-10-07T07:24:47.281Z,1.00
2018-10-07T07:26:52.277Z,1.40
2018-10-07T07:28:57.129Z,1.13
2018-10-07T07:31:01.944Z,1.23
2018-10-07T07:33:06.861Z,1.20
2018-10-07T07:35:11.772Z,1.90
2018-10-07T07:37:16.522Z,1.57
2018-10-07T07:39:21.712Z,1.30
2018-10-07T07:41:26.731Z,1.67
2018-10-07T07:43:31.656Z,1.50
2018-10-07T07:45:36.560Z,1.80
2018-10-07T07:47:41.480Z,1.30
2018-10-07T07:49:46.355Z,1.40
2018-10-07T07:51:51.361Z,1.90
2018-10-07T07:53:56.360Z,1.07
2018-10-07T07:56:01.454Z,2.00
2018-10-07T07:58:06.307Z,1.70
2018-10-07T08:00:11.248Z,2.23
2018-10-07T08:02:16.679Z,1.87
2018-10-07T08:04:21.477Z,1.40
2018-10-07T08:06:27.356Z,1.53
2018-10-07T08:08:32.249Z,1.67
2018-10-07T08:10:37.047Z,1.57
2018-10-07T08:12:41.901Z,1.50
2018-10-07T08:14:46.654Z,1.60
2018-10-07T08:16:51.627Z,1.27
2018-10-07T08:18:56.603Z,1.40
2018-10-07T08:21:01.561Z,1.53
2018-10-07T08:23:06.528Z,2.03
2018-10-07T08:25:11.791Z,1.40
2018-10-07T08:27:16.626Z,0.80
2018-10-07T08:29:21.494Z,1.03
2018-10-07T08:31:26.596Z,1.20
2018-10-07T08:33:31.549Z,0.97
2018-10-07T08:35:36.481Z,1.30
2018-10-07T08:37:41.391Z,1.67
2018-10-07T08:39:46.206Z,1.47
2018-10-07T08:41:53.178Z,1.20
2018-10-07T08:43:58.301Z,1.63
2018-10-07T08:46:03.071Z,1.97
2018-10-07T08:48:07.999Z,1.40
2018-10-07T08:50:12.948Z,2.30
2018-10-07T08:52:17.825Z,2.03
2018-10-07T08:54:22.886Z,1.73
2018-10-07T08:56:27.808Z,1.50
2018-10-07T08:58:32.854Z,1.30
2018-10-07T09:00:38.101Z,1.87
2018-10-07T09:02:42.998Z,2.40
2018-10-07T09:04:49.207Z,1.80
2018-10-07T09:06:56.472Z,1.73
2018-10-07T09:09:01.548Z,1.53
2018-10-07T09:11:06.774Z,1.53
2018-10-07T09:13:11.599Z,1.67
2018-10-07T09:15:16.506Z,1.50
2018-10-07T09:17:21.400Z,1.20
2018-10-07T09:19:26.404Z,1.77
2018-10-07T09:21:31.660Z,1.80
2018-10-07T09:23:36.584Z,1.40
2018-10-07T09:25:41.732Z,1.20
2018-10-07T09:27:47.432Z,1.77
2018-10-07T09:29:52.566Z,1.80
2018-10-07T09:31:57.763Z,1.43
2018-10-07T09:34:02.559Z,1.43
2018-10-07T09:36:07.427Z,1.23
2018-10-07T09:38:12.157Z,1.20
2018-10-07T09:40:17.292Z,0.93
2018-10-07T09:42:22.410Z,1.07
2018-10-07T09:44:33.818Z,1.20
2018-10-07T09:46:39.275Z,1.10
2018-10-07T09:48:44.492Z,0.90
2018-10-07T09:50:49.619Z,0.60
2018-10-07T09:52:54.768Z,1.07
2018-10-07T09:54:59.890Z,0.60
2018-10-07T09:57:04.768Z,1.07
2018-10-07T09:59:09.830Z,0.53
2018-10-07T10:01:14.857Z,1.20
2018-10-07T10:03:20.093Z,0.80
2018-10-07T10:05:25.325Z,0.70
2018-10-07T10:07:30.231Z,0.70
2018-10-07T10:09:35.038Z,0.77
2018-10-07T10:11:46.494Z,0.70
2018-10-07T10:13:51.576Z,0.57
2018-10-07T10:15:56.472Z,0.90
2018-10-07T10:18:04.720Z,0.80
2018-10-07T10:20:11.583Z,1.00
2018-10-07T10:22:35.586Z,0.90
2018-10-07T10:25:11.790Z,1.30
2018-10-07T10:28:21.560Z,1.10
2018-10-07T10:30:38.088Z,1.00
2018-10-07T10:33:13.151Z,1.00
2018-10-07T10:38:17.016Z,1.13
2018-10-07T10:40:29.279Z,0.70
2018-10-07T10:42:45.800Z,0.90
2018-10-07T10:44:54.805Z,1.00
2018-10-07T10:47:41.804Z,0.70
2018-10-07T10:49:58.067Z,0.73
2018-10-07T10:52:36.773Z,0.67
2018-10-07T10:54:48.122Z,0.50
2018-10-07T10:57:34.185Z,0.77
2018-10-07T11:00:05.139Z,0.70
2018-10-07T11:04:28.360Z,0.57
2018-10-07T11:06:49.695Z,0.70
2018-10-07T11:09:23.704Z,0.67
2018-10-07T11:11:49.510Z,0.60
2018-10-07T11:14:00.544Z,0.70
2018-10-07T11:16:34.810Z,0.50
2018-10-07T11:18:53.413Z,0.43
2018-10-07T11:21:25.971Z,0.50
2018-10-07T11:23:54.457Z,0.63
2018-10-07T11:27:08.177Z,0.70
2018-10-07T11:29:50.902Z,0.60
2018-10-07T11:32:08.750Z,0.57
2018-10-07T11:34:30.309Z,0.50
2018-10-07T11:39:24.581Z,0.50
2018-10-07T11:41:41.804Z,0.50
2018-10-07T11:43:59.723Z,0.60
2018-10-07T11:46:17.017Z,0.50
2018-10-07T11:50:54.077Z,0.60
2018-10-07T11:53:26.167Z,0.53
2018-10-07T11:55:31.351Z,0.50
2018-10-07T11:57:36.371Z,0.50
2018-10-07T11:59:41.586Z,0.70
2018-10-07T12:01:46.893Z,0.70
2018-10-07T12:03:51.982Z,0.80
2018-10-07T12:05:57.203Z,0.57
2018-10-07T12:08:02.176Z,0.77
2018-10-07T12:10:07.866Z,0.73
2018-10-07T12:12:13.442Z,0.60
2018-10-07T12:14:18.606Z,0.70
2018-10-07T12:16:24.844Z,0.63
2018-10-07T12:18:30.160Z,0.80
2018-10-07T12:20:36.120Z,0.67
2018-10-07T12:22:41.379Z,0.80
2018-10-07T12:24:47.311Z,1.00
2018-10-07T12:26:53.424Z,0.70
2018-10-07T12:28:59.328Z,1.10
2018-10-07T12:31:08.547Z,0.63
2018-10-07T12:33:14.667Z,1.10
2018-10-07T12:35:20.870Z,0.60
2018-10-07T12:37:26.334Z,0.60
2018-10-07T12:39:32.969Z,0.67
2018-10-07T12:41:37.901Z,0.63
2018-10-07T12:43:42.840Z,0.53
2018-10-07T12:45:47.955Z,0.50
2018-10-07T12:47:52.987Z,0.87
2018-10-07T12:49:57.983Z,0.80
2018-10-07T12:52:02.992Z,0.50
2018-10-07T12:54:08.423Z,0.50
2018-10-07T12:56:13.834Z,0.63
2018-10-07T12:58:19.178Z,0.70
2018-10-07T13:00:24.171Z,0.50
2018-10-07T13:02:29.260Z,0.60
2018-10-07T13:04:34.281Z,1.10
2018-10-07T13:06:39.352Z,0.60
2018-10-07T13:08:44.382Z,0.60
2018-10-07T13:10:49.253Z,0.67
2018-10-07T13:12:53.988Z,0.47
2018-10-07T13:14:59.333Z,0.80
2018-10-07T13:17:04.130Z,0.67
2018-10-07T13:19:09.186Z,0.50
2018-10-07T13:21:14.368Z,0.60
2018-10-07T13:23:19.218Z,0.53
2018-10-07T13:25:24.304Z,0.70
2018-10-07T13:27:29.779Z,0.53
2018-10-07T13:29:34.750Z,0.77
2018-10-07T13:31:39.718Z,0.53
2018-10-07T13:33:45.354Z,0.50
2018-10-07T13:35:50.470Z,0.70
2018-10-07T13:37:55.507Z,0.50
2018-10-07T13:40:02.251Z,0.50
2018-10-07T13:42:08.832Z,0.67
2018-10-07T13:44:13.912Z,0.53
2018-10-07T13:46:18.999Z,0.73
2018-10-07T13:48:24.182Z,0.70
2018-10-07T13:50:28.951Z,0.60
2018-10-07T13:52:33.940Z,0.60
2018-10-07T13:54:38.863Z,0.60
2018-10-07T13:56:43.950Z,1.00
2018-10-07T13:58:49.108Z,0.80
2018-10-07T14:00:54.287Z,0.80
2018-10-07T14:02:59.506Z,0.60
2018-10-07T14:05:04.771Z,0.60
2018-10-07T14:07:09.903Z,0.50
2018-10-07T14:09:15.074Z,0.60
2018-10-07T14:11:20.486Z,0.70
2018-10-07T14:13:25.834Z,0.50
2018-10-07T14:15:31.018Z,0.50
2018-10-07T14:17:36.379Z,0.50
2018-10-07T14:19:42.061Z,0.77
2018-10-07T14:21:47.029Z,0.60
2018-10-07T14:23:52.010Z,0.80
2018-10-07T14:25:57.138Z,0.50
2018-10-07T14:28:01.879Z,1.10
2018-10-07T14:30:07.043Z,0.70
2018-10-07T14:32:12.378Z,0.60
2018-10-07T14:34:17.782Z,0.50
2018-10-07T14:36:22.620Z,0.57
2018-10-07T14:38:27.624Z,0.57
2018-10-07T14:40:32.909Z,0.70
2018-10-07T14:42:37.856Z,0.50
2018-10-07T14:44:42.924Z,0.40
2018-10-07T14:46:48.049Z,0.80
2018-10-07T14:48:53.131Z,0.63
2018-10-07T14:50:58.005Z,0.40
2018-10-07T14:53:03.007Z,0.70
2018-10-07T14:55:07.939Z,0.60
2018-10-07T14:57:12.691Z,0.53
2018-10-07T14:59:17.822Z,0.40
2018-10-07T15:01:22.653Z,0.50
2018-10-07T15:03:27.495Z,0.50
2018-10-07T15:05:32.765Z,0.40
2018-10-07T15:07:37.714Z,0.73
2018-10-07T15:09:42.892Z,0.70
2018-10-07T15:11:47.704Z,0.50
2018-10-07T15:13:52.616Z,0.70
2018-10-07T15:15:57.556Z,0.60
2018-10-07T15:18:02.729Z,0.57
2018-10-07T15:20:07.847Z,0.50
2018-10-07T15:22:12.827Z,0.63
2018-10-07T15:24:18.561Z,0.53
2018-10-07T15:26:23.624Z,0.70
2018-10-07T15:28:28.519Z,0.60
2018-10-07T15:30:33.525Z,0.50
2018-10-07T15:32:38.458Z,0.60
2018-10-07T15:34:43.499Z,0.83
2018-10-07T15:36:48.531Z,0.60
2018-10-07T15:38:53.655Z,0.50
2018-10-07T15:40:58.887Z,0.47
2018-10-07T15:43:03.967Z,0.67
2018-10-07T15:45:09.125Z,0.70
2018-10-07T15:47:14.026Z,0.60
2018-10-07T15:49:18.815Z,0.60
2018-10-07T15:51:23.874Z,0.60
2018-10-07T15:53:29.132Z,0.53
2018-10-07T15:55:34.141Z,0.60
2018-10-07T15:57:39.170Z,0.60
2018-10-07T15:59:44.334Z,0.70
2018-10-07T16:01:49.299Z,0.57
2018-10-07T16:03:54.207Z,0.60
2018-10-07T16:05:59.335Z,0.57
2018-10-07T16:08:04.341Z,0.63
2018-10-07T16:10:09.717Z,0.57
2018-10-07T16:12:15.146Z,0.40
2018-10-07T16:14:20.533Z,0.50
2018-10-07T16:16:25.964Z,0.60
2018-10-07T16:18:31.116Z,0.80
2018-10-07T16:20:37.699Z,0.67
2018-10-07T16:22:42.988Z,0.63
2018-10-07T16:24:48.348Z,0.60
2018-10-07T16:26:53.446Z,0.80
2018-10-07T16:28:58.788Z,0.40
2018-10-07T16:31:03.798Z,0.50
2018-10-07T16:33:08.809Z,0.90
2018-10-07T16:35:14.137Z,0.60
2018-10-07T16:37:19.150Z,0.80
2018-10-07T16:39:24.238Z,0.67
2018-10-07T16:41:29.600Z,0.63
2018-10-07T16:43:34.728Z,0.60
2018-10-07T16:45:39.819Z,0.90
2018-10-07T16:47:47.821Z,0.70
2018-10-07T16:49:53.265Z,1.00
2018-10-07T16:51:58.614Z,0.90
2018-10-07T16:54:03.695Z,0.60
2018-10-07T16:56:08.816Z,0.80
2018-10-07T16:58:14.253Z,0.90
2018-10-07T17:00:19.513Z,0.90
2018-10-07T17:02:24.692Z,0.60
2018-10-07T17:04:29.932Z,0.67
2018-10-07T17:06:35.707Z,0.80
2018-10-07T17:08:40.900Z,1.03
2018-10-07T17:10:46.110Z,0.60
2018-10-07T17:12:51.094Z,0.70
2018-10-07T17:14:56.021Z,0.80
2018-10-07T17:17:01.470Z,0.87
2018-10-07T17:19:06.861Z,0.90
2018-10-07T17:21:18.198Z,1.23
2018-10-07T17:23:23.368Z,1.10
2018-10-07T17:25:28.323Z,1.33
2018-10-07T17:27:33.928Z,0.97
2018-10-07T17:29:39.000Z,1.30
2018-10-07T17:31:44.631Z,0.80
2018-10-07T17:33:49.985Z,0.70
2018-10-07T17:35:55.694Z,0.67
2018-10-07T17:38:00.857Z,0.70
2018-10-07T17:40:06.299Z,0.63
2018-10-07T17:42:11.386Z,0.70
2018-10-07T17:44:16.406Z,0.90
2018-10-07T17:46:23.707Z,1.13
2018-10-07T17:48:29.020Z,0.50
2018-10-07T17:50:34.451Z,0.80
2018-10-07T17:52:40.277Z,1.17
2018-10-07T17:54:45.363Z,1.50
2018-10-07T17:56:50.202Z,0.77
2018-10-07T17:58:55.134Z,0.60
2018-10-07T18:01:00.089Z,0.70
2018-10-07T18:03:05.375Z,0.93
2018-10-07T18:05:10.145Z,0.87
2018-10-07T18:07:15.513Z,0.63
2018-10-07T18:09:20.745Z,0.53
2018-10-07T18:11:25.674Z,0.60
2018-10-07T18:13:30.530Z,0.70
2018-10-07T18:15:35.483Z,1.07
2018-10-07T18:17:40.803Z,0.90
2018-10-07T18:19:45.861Z,1.17
2018-10-07T18:21:51.857Z,0.67
2018-10-07T18:23:56.915Z,0.70
2018-10-07T18:26:01.992Z,0.63
2018-10-07T18:28:07.674Z,0.63
2018-10-07T18:30:12.832Z,0.97
2018-10-07T18:32:18.758Z,0.60
2018-10-07T18:34:24.019Z,1.00
2018-10-07T18:36:29.245Z,1.07
2018-10-07T18:38:34.729Z,0.70
2018-10-07T18:40:40.059Z,0.80
2018-10-07T18:42:46.852Z,1.03
2018-10-07T18:44:52.284Z,0.83
2018-10-07T18:46:57.583Z,0.63
2018-10-07T18:49:03.430Z,0.70
2018-10-07T18:51:08.362Z,0.70
2018-10-07T18:53:13.813Z,0.87
2018-10-07T18:55:19.990Z,0.93
2018-10-07T18:57:25.409Z,1.20
2018-10-07T18:59:30.799Z,0.80
2018-10-07T19:01:35.672Z,1.00
2018-10-07T19:03:42.136Z,0.97
2018-10-07T19:05:47.382Z,1.20
2018-10-07T19:07:52.784Z,0.90
2018-10-07T19:09:57.984Z,0.80
2018-10-07T19:12:09.926Z,0.73
2018-10-07T19:14:15.243Z,0.70
2018-10-07T19:16:21.599Z,1.07
2018-10-07T19:18:26.463Z,1.23
2018-10-07T19:20:31.490Z,0.83
2018-10-07T19:22:36.851Z,1.10
2018-10-07T19:24:42.947Z,0.73
2018-10-07T19:26:48.310Z,1.30
2018-10-07T19:28:53.589Z,0.73
2018-10-07T19:30:58.823Z,1.13
2018-10-07T19:33:04.073Z,1.00
2018-10-07T19:35:08.975Z,1.10
2018-10-07T19:37:14.743Z,1.20
2018-10-07T19:39:19.622Z,0.90
2018-10-07T19:41:24.715Z,0.83
2018-10-07T19:43:29.764Z,0.83
2018-10-07T19:45:35.057Z,0.80
2018-10-07T19:47:40.268Z,1.50
2018-10-07T19:49:46.666Z,0.97
2018-10-07T19:51:52.181Z,0.67
2018-10-07T19:53:59.156Z,1.00
2018-10-07T19:56:06.922Z,1.80
2018-10-07T19:58:13.105Z,1.03
2018-10-07T20:00:21.847Z,0.90
2018-10-07T20:02:32.052Z,1.60
2018-10-07T20:04:38.860Z,0.80
2018-10-07T20:06:46.041Z,1.00
2018-10-07T20:08:52.003Z,1.10
2018-10-07T20:10:58.902Z,0.90
2018-10-07T20:13:05.152Z,1.23
2018-10-07T20:15:11.101Z,1.13
2018-10-07T20:17:16.541Z,1.17
2018-10-07T20:19:22.491Z,1.67
2018-10-07T20:21:30.879Z,1.30
2018-10-07T20:23:36.876Z,1.10
2018-10-07T20:25:42.655Z,1.20
2018-10-07T20:27:48.765Z,1.27
2018-10-07T20:31:56.061Z,0.97
2018-10-07T20:34:02.103Z,0.80
2018-10-07T20:36:07.880Z,1.43
2018-10-07T20:38:13.272Z,1.17
2018-10-07T20:40:18.487Z,1.10
2018-10-07T20:42:25.015Z,1.30
2018-10-07T20:44:30.805Z,0.90
2018-10-07T20:46:36.146Z,1.20
2018-10-07T20:48:41.147Z,1.30
2018-10-07T20:50:46.240Z,1.40
2018-10-07T20:52:52.464Z,1.00
2018-10-07T20:54:57.785Z,1.73
2018-10-07T20:57:03.306Z,1.50
2018-10-07T20:59:08.791Z,1.40
2018-10-07T21:01:16.203Z,1.17
2018-10-07T21:03:21.268Z,1.13
2018-10-07T21:05:26.871Z,1.40
2018-10-07T21:07:31.938Z,1.17
2018-10-07T21:09:37.071Z,1.83
2018-10-07T21:11:42.528Z,1.20
2018-10-07T21:13:47.626Z,1.27
2018-10-07T21:15:52.694Z,1.10
2018-10-07T21:17:57.603Z,1.50
2018-10-07T21:20:02.522Z,0.97
2018-10-07T21:22:07.490Z,1.20
2018-10-07T21:24:12.544Z,1.40
2018-10-07T21:26:17.513Z,1.60
2018-10-07T21:28:22.529Z,1.20
2018-10-07T21:30:27.713Z,1.00
2018-10-07T21:32:39.304Z,1.93
2018-10-07T21:34:44.180Z,1.33
2018-10-07T21:36:49.078Z,1.63
2018-10-07T21:38:53.992Z,1.50
2018-10-07T21:40:58.807Z,1.00
2018-10-07T21:43:03.643Z,1.17
2018-10-07T21:45:08.436Z,1.60
2018-10-07T21:47:13.309Z,1.37
2018-10-07T21:49:18.093Z,1.23
2018-10-07T21:51:23.075Z,1.53
2018-10-07T21:53:28.935Z,1.70
2018-10-07T21:55:34.032Z,0.97
2018-10-07T21:57:38.972Z,1.83
2018-10-07T21:59:43.850Z,1.50
2018-10-07T22:01:48.655Z,1.40
2018-10-07T22:03:53.527Z,1.13
2018-10-07T22:05:58.442Z,1.40
2018-10-07T22:08:03.381Z,1.30
2018-10-07T22:10:08.233Z,1.50
2018-10-07T22:12:12.991Z,1.30
2018-10-07T22:14:17.772Z,1.20
2018-10-07T22:16:22.595Z,1.57
2018-10-07T22:18:27.429Z,1.57
2018-10-07T22:20:32.167Z,1.73
2018-10-07T22:22:36.864Z,1.47
2018-10-07T22:24:41.617Z,1.73
2018-10-07T22:26:46.563Z,1.10
2018-10-07T22:28:51.352Z,2.03
2018-10-07T22:30:56.166Z,1.20
2018-10-07T22:33:01.173Z,1.67
2018-10-07T22:35:06.252Z,1.60
2018-10-07T22:37:11.193Z,1.60
2018-10-07T22:39:15.966Z,1.40
2018-10-07T22:41:21.771Z,1.30
2018-10-07T22:43:26.582Z,1.90
2018-10-07T22:45:31.397Z,1.40
2018-10-07T22:47:36.288Z,1.50
2018-10-07T22:49:41.131Z,1.53
2018-10-07T22:51:46.155Z,1.53
2018-10-07T22:53:50.990Z,1.40
2018-10-07T22:55:55.752Z,1.37
2018-10-07T22:58:00.568Z,1.67
2018-10-07T23:00:05.672Z,1.60
2018-10-07T23:02:10.506Z,1.97
2018-10-07T23:04:15.257Z,1.60
2018-10-07T23:06:19.972Z,1.80
2018-10-07T23:08:24.613Z,1.30
2018-10-07T23:10:29.338Z,1.53
2018-10-07T23:12:34.119Z,1.70
2018-10-07T23:14:38.784Z,1.60
2018-10-07T23:16:43.595Z,1.73
2018-10-07T23:18:48.410Z,2.03
2018-10-07T23:20:53.229Z,1.87
2018-10-07T23:22:57.903Z,1.47
2018-10-07T23:25:02.606Z,1.80
2018-10-07T23:27:07.532Z,1.40
2018-10-07T23:29:12.223Z,1.43
2018-10-07T23:31:16.971Z,1.90
2018-10-07T23:33:22.083Z,2.10
2018-10-07T23:35:26.790Z,1.97
2018-10-07T23:37:31.635Z,1.83
2018-10-07T23:39:36.357Z,1.77
2018-10-07T23:41:41.114Z,1.30
2018-10-07T23:43:46.392Z,2.23
2018-10-07T23:45:51.065Z,1.60
2018-10-07T23:47:55.771Z,1.70
2018-10-07T23:50:00.514Z,1.80
2018-10-07T23:52:05.341Z,1.40
2018-10-07T23:54:10.169Z,1.83
2018-10-07T23:56:15.015Z,2.50
2018-10-07T23:58:19.794Z,1.60
